Cordes Airport


Codes: 00AZ/
Name: Cordes Airport
City: Cordes
Country: United States
Elevation: 3810 ft.

Photos at Cordes Airport


   Photos courtesy of SpottingLog. You can add your own sightings and photos by signing up for a free trial today.



No photos found.

Weather at Cordes Airport


Time (UTC)DescriptionTempratureWindCloud coverageVisibilityPressureHumidity
17-Jun-2024 06:00Clear Sky27°C7 mph, W0%10000m1004hPa19%
17-Jun-2024 09:00Clear Sky22°C4 mph, SW0%10000m1004hPa25%
17-Jun-2024 12:00Clear Sky18°C7 mph, S0%10000m1004hPa31%
17-Jun-2024 15:00Clear Sky25°C11 mph, S0%10000m1005hPa20%
17-Jun-2024 18:00Clear Sky29°C18 mph, S0%10000m1003hPa14%
17-Jun-2024 21:00Clear Sky31°C20 mph, S0%10000m1001hPa13%
18-Jun-2024 00:00Clear Sky31°C22 mph, SW0%10000m1000hPa14%
18-Jun-2024 03:00Clear Sky25°C13 mph, SW0%10000m1001hPa24%
18-Jun-2024 06:00Clear Sky21°C9 mph, SW0%10000m1004hPa28%
18-Jun-2024 09:00Clear Sky18°C4 mph, SW0%10000m1004hPa39%
18-Jun-2024 12:00Clear Sky15°C2 mph, SE3%10000m1005hPa45%
18-Jun-2024 15:00Clear Sky22°C4 mph, SE0%10000m1006hPa29%
18-Jun-2024 18:00Clear Sky27°C11 mph, S1%10000m1006hPa20%
18-Jun-2024 21:00Clear Sky30°C11 mph, S6%10000m1005hPa17%
19-Jun-2024 00:00Few Clouds30°C16 mph, SW13%10000m1004hPa17%
19-Jun-2024 03:00Scattered Clouds24°C7 mph, SW28%10000m1005hPa28%
19-Jun-2024 06:00Few Clouds21°C4 mph, W18%10000m1007hPa32%
19-Jun-2024 09:00Clear Sky19°C2 mph, W4%10000m1007hPa31%
19-Jun-2024 12:00Clear Sky17°C2 mph, S2%10000m1008hPa33%
19-Jun-2024 15:00Clear Sky24°C4 mph, SE0%10000m1009hPa25%
19-Jun-2024 18:00Clear Sky29°C11 mph, S0%10000m1008hPa22%
19-Jun-2024 21:00Clear Sky31°C13 mph, S0%10000m1006hPa14%
20-Jun-2024 00:00Clear Sky31°C11 mph, S0%10000m1005hPa17%
20-Jun-2024 03:00Clear Sky23°C4 mph, SW0%10000m1006hPa27%
20-Jun-2024 06:00Clear Sky22°C7 mph, NW0%10000m1007hPa30%
20-Jun-2024 09:00Clear Sky20°C4 mph, N0%10000m1007hPa35%
20-Jun-2024 12:00Clear Sky19°C7 mph, N0%10000m1008hPa34%
20-Jun-2024 15:00Clear Sky26°C4 mph, E0%10000m1009hPa25%
20-Jun-2024 18:00Clear Sky31°C18 mph, SE0%10000m1008hPa32%
20-Jun-2024 21:00Clear Sky34°C18 mph, S0%10000m1006hPa25%
21-Jun-2024 00:00Clear Sky34°C16 mph, S0%10000m1003hPa23%
21-Jun-2024 03:00Clear Sky28°C11 mph, SW0%10000m1004hPa26%
21-Jun-2024 06:00Clear Sky24°C4 mph, N0%10000m1006hPa31%
21-Jun-2024 09:00Clear Sky23°C4 mph, NE0%10000m1007hPa39%
21-Jun-2024 12:00Clear Sky20°C4 mph, NE0%10000m1008hPa61%
21-Jun-2024 15:00Clear Sky26°C4 mph, NE0%10000m1009hPa49%
21-Jun-2024 18:00Clear Sky31°C9 mph, SE0%10000m1008hPa32%
21-Jun-2024 21:00Clear Sky35°C13 mph, S0%10000m1006hPa23%
22-Jun-2024 00:00Clear Sky34°C13 mph, S0%10000m1005hPa20%
22-Jun-2024 03:00Clear Sky27°C2 mph, NW0%10000m1005hPa35%